Time;durP1;ratioP1;P1;durP2;ratioP2;P2;SDS_P1;SDS_P2;PMS_P1;PMS_P2;Temp;Humidity;BMP_temperature;BMP_pressure;BME280_temperature;BME280_humidity;BME280_pressure;Samples;Min_cycle;Max_cycle;Signal;HPM_P1;HPM_P2
2023/04/19 00:02:15;;;;;;;;;24.25;23.00;;;;;;;;5103796;27;61841;-71
2023/04/19 00:04:40;;;;;;;;;20.00;19.75;;;;;;;;5105095;27;61932;-72
2023/04/19 00:07:06;;;;;;;;;31.50;19.50;;;;;;;;5104111;27;62614;-72
2023/04/19 00:09:31;;;;;;;;;21.50;18.75;;;;;;;;5104626;27;61686;-72
2023/04/19 00:11:56;;;;;;;;;26.75;21.25;;;;;;;;5095242;27;61672;-72
2023/04/19 00:14:22;;;;;;;;;25.00;18.75;;;;;;;;5103344;27;61725;-71
2023/04/19 00:16:47;;;;;;;;;25.75;22.25;;;;;;;;5103288;27;62921;-72
2023/04/19 00:19:12;;;;;;;;;26.50;19.50;;;;;;;;5123257;27;61987;-71
2023/04/19 00:21:37;;;;;;;;;21.75;18.00;;;;;;;;5124923;27;61718;-71
2023/04/19 00:24:03;;;;;;;;;21.75;19.50;;;;;;;;5112922;27;61965;-72
2023/04/19 00:26:28;;;;;;;;;19.75;15.50;;;;;;;;5123433;27;61774;-71
2023/04/19 00:28:53;;;;;;;;;23.50;18.50;;;;;;;;5104922;27;61944;-71
2023/04/19 00:31:19;;;;;;;;;19.50;17.75;;;;;;;;5125485;27;61743;-71
2023/04/19 00:33:44;;;;;;;;;23.50;16.75;;;;;;;;5125173;27;61748;-72
2023/04/19 00:36:09;;;;;;;;;21.50;17.50;;;;;;;;5124170;27;62845;-71
2023/04/19 00:38:35;;;;;;;;;19.00;16.00;;;;;;;;5115646;27;61676;-71
2023/04/19 00:41:00;;;;;;;;;17.50;16.25;;;;;;;;5103629;27;61727;-71
2023/04/19 00:43:25;;;;;;;;;20.50;17.50;;;;;;;;5107327;27;61761;-71
2023/04/19 00:45:50;;;;;;;;;19.00;16.00;;;;;;;;5123617;27;62635;-71
2023/04/19 00:48:16;;;;;;;;;18.25;15.00;;;;;;;;5124966;27;61807;-72
2023/04/19 00:50:42;;;;;;;;;12.75;12.75;;;;;;;;5104277;27;62293;-72
2023/04/19 00:53:08;;;;;;;;;21.00;16.75;;;;;;;;5104136;27;61738;-72
2023/04/19 00:55:33;;;;;;;;;17.25;14.00;;;;;;;;5103549;27;62030;-72
2023/04/19 00:57:59;;;;;;;;;20.00;16.50;;;;;;;;5103716;27;61751;-72
2023/04/19 01:00:24;;;;;;;;;15.50;15.50;;;;;;;;5103757;27;61756;-71
2023/04/19 01:02:49;;;;;;;;;19.00;17.50;;;;;;;;5105474;27;61938;-72
2023/04/19 01:05:15;;;;;;;;;16.00;14.00;;;;;;;;5114998;27;64839;-72
2023/04/19 01:07:40;;;;;;;;;18.75;16.00;;;;;;;;5109507;27;61948;-72
2023/04/19 01:10:06;;;;;;;;;21.00;18.50;;;;;;;;5104268;27;61818;-71
2023/04/19 01:12:31;;;;;;;;;21.25;17.50;;;;;;;;5101622;27;62148;-71
2023/04/19 01:14:56;;;;;;;;;20.75;13.00;;;;;;;;5113713;27;61801;-72
2023/04/19 01:17:22;;;;;;;;;12.25;12.25;;;;;;;;5123614;27;62035;-71
2023/04/19 01:19:47;;;;;;;;;23.00;16.00;;;;;;;;5113922;27;62505;-72
2023/04/19 01:22:17;;;;;;;;;15.00;14.25;;;;;;;;5103582;27;61740;-71
2023/04/19 01:24:42;;;;;;;;;20.00;15.50;;;;;;;;5102870;27;61902;-72
2023/04/19 01:27:07;;;;;;;;;20.75;13.00;;;;;;;;5103235;27;62156;-71
2023/04/19 01:29:33;;;;;;;;;21.50;17.50;;;;;;;;5103653;27;62096;-71
2023/04/19 01:31:58;;;;;;;;;18.25;16.25;;;;;;;;5103763;27;62144;-72
2023/04/19 01:34:23;;;;;;;;;19.25;14.50;;;;;;;;5114046;27;61803;-71
2023/04/19 01:36:48;;;;;;;;;18.50;16.50;;;;;;;;5107594;27;61808;-72
2023/04/19 01:39:14;;;;;;;;;16.25;14.75;;;;;;;;5103688;27;61714;-71
2023/04/19 01:41:39;;;;;;;;;18.75;15.00;;;;;;;;5103550;27;61845;-71
2023/04/19 01:44:05;;;;;;;;;16.50;13.00;;;;;;;;5102766;27;62590;-72
2023/04/19 01:46:32;;;;;;;;;17.00;14.25;;;;;;;;5122384;27;61856;-71
2023/04/19 01:48:57;;;;;;;;;25.50;14.00;;;;;;;;5123030;27;61717;-71
2023/04/19 01:51:22;;;;;;;;;17.75;14.25;;;;;;;;5124351;27;61874;-72
2023/04/19 01:53:52;;;;;;;;;16.75;12.25;;;;;;;;5123365;27;62681;-71
2023/04/19 01:56:18;;;;;;;;;14.00;14.00;;;;;;;;5123720;27;61915;-71
2023/04/19 01:58:43;;;;;;;;;19.75;14.25;;;;;;;;5124062;27;61710;-71
2023/04/19 02:01:11;;;;;;;;;20.25;15.00;;;;;;;;5121063;27;61956;-72
2023/04/19 02:03:36;;;;;;;;;17.00;14.75;;;;;;;;5099876;27;62484;-72
2023/04/19 02:06:02;;;;;;;;;14.75;14.75;;;;;;;;5102821;27;61957;-71
2023/04/19 02:08:27;;;;;;;;;16.00;14.75;;;;;;;;5118115;27;61747;-72
2023/04/19 02:10:52;;;;;;;;;19.00;14.00;;;;;;;;5121938;27;61981;-72
2023/04/19 02:13:18;;;;;;;;;13.00;13.00;;;;;;;;5104107;27;61782;-71
2023/04/19 02:15:43;;;;;;;;;19.00;16.50;;;;;;;;5102589;27;61878;-72
2023/04/19 02:18:08;;;;;;;;;14.00;14.00;;;;;;;;5102425;27;61850;-71
2023/04/19 02:20:33;;;;;;;;;16.75;15.00;;;;;;;;5102548;27;61910;-71
2023/04/19 02:22:59;;;;;;;;;15.00;12.00;;;;;;;;5113203;27;62717;-71
2023/04/19 02:25:25;;;;;;;;;19.50;14.50;;;;;;;;5102255;27;61994;-71
2023/04/19 02:27:50;;;;;;;;;15.00;13.25;;;;;;;;5102554;27;62000;-71
2023/04/19 02:30:16;;;;;;;;;15.75;13.50;;;;;;;;5102426;27;62024;-71
2023/04/19 02:32:41;;;;;;;;;16.50;14.00;;;;;;;;5101377;27;62018;-72
2023/04/19 02:35:06;;;;;;;;;19.75;14.75;;;;;;;;5102307;27;61757;-71
2023/04/19 02:37:31;;;;;;;;;18.50;15.00;;;;;;;;5102386;27;61806;-71
2023/04/19 02:39:57;;;;;;;;;16.50;15.25;;;;;;;;5102189;27;61878;-72
2023/04/19 02:42:22;;;;;;;;;14.75;14.75;;;;;;;;5111165;27;61924;-72
2023/04/19 02:44:47;;;;;;;;;21.75;14.75;;;;;;;;5105463;27;61802;-71
2023/04/19 02:47:12;;;;;;;;;20.50;17.00;;;;;;;;5101634;27;61742;-72
2023/04/19 02:49:40;;;;;;;;;17.75;14.00;;;;;;;;5102623;27;61951;-71
2023/04/19 02:52:05;;;;;;;;;17.00;14.50;;;;;;;;5101821;27;61778;-71
2023/04/19 02:54:32;;;;;;;;;16.00;14.00;;;;;;;;5111417;27;61842;-71
2023/04/19 02:56:57;;;;;;;;;16.00;15.00;;;;;;;;5117365;27;61888;-71
2023/04/19 02:59:23;;;;;;;;;21.50;17.25;;;;;;;;5105287;27;61720;-71
2023/04/19 03:01:48;;;;;;;;;21.00;18.00;;;;;;;;5116893;27;62462;-71
2023/04/19 03:04:13;;;;;;;;;15.25;11.50;;;;;;;;5102004;27;61640;-71
2023/04/19 03:06:38;;;;;;;;;14.00;13.75;;;;;;;;5102186;27;61911;-71
2023/04/19 03:09:03;;;;;;;;;15.00;14.00;;;;;;;;5103143;27;61791;-72
2023/04/19 03:11:29;;;;;;;;;17.50;11.00;;;;;;;;5120462;27;63773;-71
2023/04/19 03:13:54;;;;;;;;;17.25;14.00;;;;;;;;5109178;27;61894;-72
2023/04/19 03:16:19;;;;;;;;;16.75;14.00;;;;;;;;5104476;27;61949;-71
2023/04/19 03:18:45;;;;;;;;;19.00;14.25;;;;;;;;5106359;27;61691;-71
2023/04/19 03:21:10;;;;;;;;;16.25;12.50;;;;;;;;5103394;27;64009;-71
2023/04/19 03:23:35;;;;;;;;;17.50;12.50;;;;;;;;5109251;27;61659;-72
2023/04/19 03:26:01;;;;;;;;;13.00;13.00;;;;;;;;5126345;27;61690;-72
2023/04/19 03:28:26;;;;;;;;;13.75;11.75;;;;;;;;5106072;27;62005;-71
2023/04/19 03:30:52;;;;;;;;;19.50;16.00;;;;;;;;5104550;27;61656;-71
2023/04/19 03:33:17;;;;;;;;;17.75;14.75;;;;;;;;5120685;27;61941;-72
2023/04/19 03:35:42;;;;;;;;;16.00;14.50;;;;;;;;5107849;27;61737;-71
2023/04/19 03:38:08;;;;;;;;;18.00;12.25;;;;;;;;5105965;27;61761;-71
2023/04/19 03:40:33;;;;;;;;;16.50;13.50;;;;;;;;5104196;27;62160;-71
2023/04/19 03:42:58;;;;;;;;;19.50;17.75;;;;;;;;5105137;27;61961;-71
2023/04/19 03:45:24;;;;;;;;;18.50;14.25;;;;;;;;5102895;27;61898;-71
2023/04/19 03:47:49;;;;;;;;;18.25;15.00;;;;;;;;5105524;27;61924;-72
2023/04/19 03:50:14;;;;;;;;;20.50;16.75;;;;;;;;5106096;27;63772;-71
2023/04/19 03:52:40;;;;;;;;;21.75;17.75;;;;;;;;5125802;27;61911;-71
2023/04/19 03:55:05;;;;;;;;;25.50;16.50;;;;;;;;5106443;27;61774;-72
2023/04/19 03:57:31;;;;;;;;;18.75;16.25;;;;;;;;5109720;27;61786;-71
2023/04/19 03:59:56;;;;;;;;;20.00;15.50;;;;;;;;5105055;27;61758;-71
2023/04/19 04:02:21;;;;;;;;;16.75;13.50;;;;;;;;5109141;27;61934;-71
2023/04/19 04:04:51;;;;;;;;;20.25;12.75;;;;;;;;5105313;27;61753;-71
2023/04/19 04:07:16;;;;;;;;;22.50;18.50;;;;;;;;5115407;27;61907;-71
2023/04/19 04:09:42;;;;;;;;;16.25;15.00;;;;;;;;5125064;27;61762;-71
2023/04/19 04:12:07;;;;;;;;;11.50;10.50;;;;;;;;5113159;27;62025;-72
2023/04/19 04:14:32;;;;;;;;;21.25;16.75;;;;;;;;5124491;27;62184;-71
2023/04/19 04:16:57;;;;;;;;;16.00;12.25;;;;;;;;5125395;27;61839;-71
2023/04/19 04:19:23;;;;;;;;;24.25;16.50;;;;;;;;5124525;27;62009;-71
2023/04/19 04:21:48;;;;;;;;;18.25;15.75;;;;;;;;5106204;27;61937;-71
2023/04/19 04:24:13;;;;;;;;;22.75;15.00;;;;;;;;5104946;27;61787;-71
2023/04/19 04:26:38;;;;;;;;;24.75;18.50;;;;;;;;5114260;27;61783;-71
2023/04/19 04:29:04;;;;;;;;;16.25;15.00;;;;;;;;5124582;27;61853;-71
2023/04/19 04:31:30;;;;;;;;;22.00;15.75;;;;;;;;5123368;27;61788;-71
2023/04/19 04:33:56;;;;;;;;;21.00;17.50;;;;;;;;5108030;27;61992;-71
2023/04/19 04:36:21;;;;;;;;;19.50;17.00;;;;;;;;5104856;27;61775;-71
2023/04/19 04:38:46;;;;;;;;;23.75;15.00;;;;;;;;5104109;27;61767;-71
2023/04/19 04:41:12;;;;;;;;;19.75;16.00;;;;;;;;5124383;27;61761;-71
2023/04/19 04:43:38;;;;;;;;;21.25;17.50;;;;;;;;5105640;27;61809;-71
2023/04/19 04:46:04;;;;;;;;;18.00;17.00;;;;;;;;5103957;27;61978;-71
2023/04/19 04:48:30;;;;;;;;;18.75;16.00;;;;;;;;5105582;27;61682;-71
2023/04/19 04:50:55;;;;;;;;;21.25;18.25;;;;;;;;5124544;27;61868;-71
2023/04/19 04:53:21;;;;;;;;;20.75;18.25;;;;;;;;5114073;27;62017;-71
2023/04/19 04:55:46;;;;;;;;;19.00;16.50;;;;;;;;5110683;27;61792;-71
2023/04/19 04:58:11;;;;;;;;;21.75;17.50;;;;;;;;5110184;27;63881;-70
2023/04/19 05:00:36;;;;;;;;;17.00;14.00;;;;;;;;5104155;27;61912;-71
2023/04/19 05:03:02;;;;;;;;;19.25;14.00;;;;;;;;5108886;27;61749;-71
2023/04/19 05:05:27;;;;;;;;;17.25;11.25;;;;;;;;5101425;27;62190;-71
2023/04/19 05:07:52;;;;;;;;;18.50;13.50;;;;;;;;5101824;27;62055;-71
2023/04/19 05:10:17;;;;;;;;;18.50;17.50;;;;;;;;5102501;27;61812;-71
2023/04/19 05:12:43;;;;;;;;;21.75;13.75;;;;;;;;5102677;27;62033;-71
2023/04/19 05:15:08;;;;;;;;;22.25;15.75;;;;;;;;5105271;27;61976;-71
2023/04/19 05:17:33;;;;;;;;;25.25;17.00;;;;;;;;5123841;27;61848;-73
2023/04/19 05:19:58;;;;;;;;;17.25;13.75;;;;;;;;5107292;27;62152;-72
2023/04/19 05:22:24;;;;;;;;;18.75;16.75;;;;;;;;5107199;27;61849;-74
2023/04/19 05:24:49;;;;;;;;;22.75;18.50;;;;;;;;5107055;27;61954;-74
2023/04/19 05:27:15;;;;;;;;;19.00;17.25;;;;;;;;5103049;27;61849;-74
2023/04/19 05:29:40;;;;;;;;;22.50;17.75;;;;;;;;5103909;27;61799;-74
2023/04/19 05:32:06;;;;;;;;;24.75;17.00;;;;;;;;5103692;27;62003;-75
2023/04/19 05:34:32;;;;;;;;;19.75;16.25;;;;;;;;5104025;27;61952;-73
2023/04/19 05:36:57;;;;;;;;;19.50;15.25;;;;;;;;5103028;27;62223;-71
2023/04/19 05:39:22;;;;;;;;;21.25;19.50;;;;;;;;5099582;27;61888;-73
2023/04/19 05:41:48;;;;;;;;;26.75;22.50;;;;;;;;5109516;27;62110;-73
2023/04/19 05:44:13;;;;;;;;;21.50;17.00;;;;;;;;5110949;27;61894;-72
2023/04/19 05:46:38;;;;;;;;;12.50;12.50;;;;;;;;5102252;27;62254;-73
2023/04/19 05:49:03;;;;;;;;;23.75;20.50;;;;;;;;5083359;27;61834;-71
2023/04/19 05:51:30;;;;;;;;;23.50;19.25;;;;;;;;5118268;27;61768;-71
2023/04/19 05:53:56;;;;;;;;;25.25;19.00;;;;;;;;5123751;27;61752;-71
2023/04/19 05:56:21;;;;;;;;;21.25;18.50;;;;;;;;5110853;27;61726;-71
2023/04/19 05:58:46;;;;;;;;;34.00;20.75;;;;;;;;5103403;27;61794;-71
2023/04/19 06:01:12;;;;;;;;;26.00;20.75;;;;;;;;5111795;27;61964;-71
2023/04/19 06:03:37;;;;;;;;;23.50;18.50;;;;;;;;5103418;27;61772;-71
2023/04/19 06:06:03;;;;;;;;;26.50;21.25;;;;;;;;5102105;27;62804;-71
2023/04/19 06:08:28;;;;;;;;;18.00;18.00;;;;;;;;5103047;27;61854;-71
2023/04/19 06:10:54;;;;;;;;;25.25;21.25;;;;;;;;5102151;27;61898;-71
2023/04/19 06:13:20;;;;;;;;;27.75;20.25;;;;;;;;5096028;27;62074;-71
2023/04/19 06:15:45;;;;;;;;;29.25;21.00;;;;;;;;5089166;27;63168;-71
2023/04/19 06:18:11;;;;;;;;;25.00;19.50;;;;;;;;5100911;27;61988;-70
2023/04/19 06:20:36;;;;;;;;;28.25;24.50;;;;;;;;5102964;27;62011;-72
2023/04/19 06:23:02;;;;;;;;;24.50;18.00;;;;;;;;5102068;27;61808;-70
2023/04/19 06:25:27;;;;;;;;;22.00;18.75;;;;;;;;5101596;27;61793;-70
2023/04/19 06:27:52;;;;;;;;;26.50;19.75;;;;;;;;5107121;27;61852;-70
2023/04/19 06:30:18;;;;;;;;;26.00;21.25;;;;;;;;5102516;27;61799;-69
2023/04/19 06:32:43;;;;;;;;;22.00;19.00;;;;;;;;5101170;27;61735;-71
2023/04/19 06:35:08;;;;;;;;;21.50;18.50;;;;;;;;5101743;27;61691;-70
2023/04/19 06:37:34;;;;;;;;;25.00;17.00;;;;;;;;5101133;27;62078;-70
2023/04/19 06:39:59;;;;;;;;;30.50;23.00;;;;;;;;5104565;27;61730;-70
2023/04/19 06:42:26;;;;;;;;;20.50;16.75;;;;;;;;5102915;27;61692;-70
2023/04/19 06:44:51;;;;;;;;;20.00;18.50;;;;;;;;5102113;27;61901;-70
2023/04/19 06:47:16;;;;;;;;;25.00;21.00;;;;;;;;5098807;27;61987;-70
2023/04/19 06:49:42;;;;;;;;;23.75;21.00;;;;;;;;5103079;27;62031;-71
2023/04/19 06:52:07;;;;;;;;;26.75;20.75;;;;;;;;5105583;27;63379;-70
2023/04/19 06:54:32;;;;;;;;;26.00;19.50;;;;;;;;5117093;27;61976;-70
2023/04/19 06:56:57;;;;;;;;;20.75;16.75;;;;;;;;5112121;27;62297;-70
2023/04/19 06:59:24;;;;;;;;;18.50;13.50;;;;;;;;5110555;27;61888;-70
2023/04/19 07:01:49;;;;;;;;;25.75;19.50;;;;;;;;5120185;27;62040;-71
2023/04/19 07:04:14;;;;;;;;;24.50;18.00;;;;;;;;5121564;27;61857;-71
2023/04/19 07:06:40;;;;;;;;;19.50;18.25;;;;;;;;5117160;27;61956;-70
2023/04/19 07:09:06;;;;;;;;;18.25;16.00;;;;;;;;5109466;27;61913;-71
2023/04/19 07:11:31;;;;;;;;;23.25;19.00;;;;;;;;5105170;27;62086;-70
2023/04/19 07:13:57;;;;;;;;;23.75;17.75;;;;;;;;5104561;27;61938;-71
2023/04/19 07:16:22;;;;;;;;;22.00;20.25;;;;;;;;5104394;27;62523;-70
2023/04/19 07:18:47;;;;;;;;;21.75;19.75;;;;;;;;5105045;27;62032;-70
2023/04/19 07:21:13;;;;;;;;;23.75;18.75;;;;;;;;5105015;27;62194;-71
2023/04/19 07:23:38;;;;;;;;;20.25;14.50;;;;;;;;5103921;27;61802;-71
2023/04/19 07:26:03;;;;;;;;;24.25;21.00;;;;;;;;5105144;27;61887;-71
2023/04/19 07:28:28;;;;;;;;;18.00;17.25;;;;;;;;5105564;27;61836;-71
2023/04/19 07:30:54;;;;;;;;;18.75;18.00;;;;;;;;5105213;27;61847;-71
2023/04/19 07:33:19;;;;;;;;;22.50;17.00;;;;;;;;5104233;27;62769;-71
2023/04/19 07:35:44;;;;;;;;;24.25;19.00;;;;;;;;5105039;27;61810;-71
2023/04/19 07:38:10;;;;;;;;;21.50;17.75;;;;;;;;5123325;27;61817;-71
2023/04/19 07:40:35;;;;;;;;;19.25;16.00;;;;;;;;5108425;27;61715;-71
2023/04/19 07:43:00;;;;;;;;;21.75;19.25;;;;;;;;5104872;27;61717;-72
2023/04/19 07:45:26;;;;;;;;;20.00;18.25;;;;;;;;5104084;27;61913;-71
2023/04/19 07:47:51;;;;;;;;;29.25;21.75;;;;;;;;5104843;27;61998;-71
2023/04/19 07:50:16;;;;;;;;;22.75;17.75;;;;;;;;5104509;27;61869;-71
2023/04/19 07:52:41;;;;;;;;;20.50;16.25;;;;;;;;5102610;27;63760;-71
2023/04/19 07:55:07;;;;;;;;;23.75;20.75;;;;;;;;5104854;27;61807;-72
2023/04/19 07:57:34;;;;;;;;;20.00;16.00;;;;;;;;5124884;27;62071;-70
2023/04/19 08:00:01;;;;;;;;;18.00;14.75;;;;;;;;5123032;27;61718;-71
2023/04/19 08:02:29;;;;;;;;;17.75;16.75;;;;;;;;5102198;27;61766;-70
2023/04/19 08:04:55;;;;;;;;;21.75;19.50;;;;;;;;5104056;27;61672;-71
2023/04/19 08:07:22;;;;;;;;;9.75;8.00;;;;;;;;5124622;27;61687;-71
2023/04/19 08:09:47;;;;;;;;;22.00;19.75;;;;;;;;5118593;27;62176;-71
2023/04/19 08:12:12;;;;;;;;;19.00;16.50;;;;;;;;5103512;27;62698;-71
2023/04/19 08:14:39;;;;;;;;;21.25;18.00;;;;;;;;5107243;27;61762;-71
2023/04/19 08:17:04;;;;;;;;;23.75;19.50;;;;;;;;5104682;27;61868;-71
2023/04/19 08:19:29;;;;;;;;;23.75;22.25;;;;;;;;5114698;27;61873;-71
2023/04/19 08:21:55;;;;;;;;;22.00;18.50;;;;;;;;5124536;27;62445;-71
2023/04/19 08:24:20;;;;;;;;;26.25;18.25;;;;;;;;5125121;27;62266;-71
2023/04/19 08:26:52;;;;;;;;;26.25;21.00;;;;;;;;5107359;27;62017;-71
2023/04/19 08:29:17;;;;;;;;;26.75;21.00;;;;;;;;5108248;27;61997;-70
2023/04/19 08:31:43;;;;;;;;;25.25;19.75;;;;;;;;5124110;27;62762;-71
2023/04/19 08:34:08;;;;;;;;;28.75;22.75;;;;;;;;5122952;27;61887;-71
2023/04/19 08:36:33;;;;;;;;;29.25;21.50;;;;;;;;5112228;27;61828;-71
2023/04/19 08:38:58;;;;;;;;;19.00;18.50;;;;;;;;5102520;27;62007;-71
2023/04/19 08:41:25;;;;;;;;;27.00;21.00;;;;;;;;5099812;27;63691;-71
2023/04/19 08:43:51;;;;;;;;;23.25;20.50;;;;;;;;5103206;27;62170;-71
2023/04/19 08:46:17;;;;;;;;;25.50;23.25;;;;;;;;5103971;27;62019;-71
2023/04/19 08:48:42;;;;;;;;;24.75;21.25;;;;;;;;5111981;27;61985;-71
2023/04/19 08:51:08;;;;;;;;;23.00;17.50;;;;;;;;5103117;27;62544;-72
2023/04/19 08:53:34;;;;;;;;;19.75;14.25;;;;;;;;5104113;27;61706;-72
2023/04/19 08:56:00;;;;;;;;;24.25;23.00;;;;;;;;5112932;27;61885;-72
2023/04/19 08:58:28;;;;;;;;;26.50;21.25;;;;;;;;5109872;27;62154;-72
2023/04/19 09:00:53;;;;;;;;;20.75;18.75;;;;;;;;5107693;27;61999;-72
2023/04/19 09:03:19;;;;;;;;;24.25;18.00;;;;;;;;5102007;27;61844;-72
2023/04/19 09:05:44;;;;;;;;;23.25;21.00;;;;;;;;5117842;27;61896;-72
2023/04/19 09:08:23;;;;;;;;;24.00;18.25;;;;;;;;5122984;27;62261;-72
2023/04/19 09:10:55;;;;;;;;;25.75;19.00;;;;;;;;5120413;27;61940;-72
2023/04/19 09:13:21;;;;;;;;;27.75;18.25;;;;;;;;5103116;27;61706;-72
2023/04/19 09:15:46;;;;;;;;;22.00;19.00;;;;;;;;5100066;27;62289;-72
2023/04/19 09:18:13;;;;;;;;;21.75;19.50;;;;;;;;5101820;27;62095;-71
2023/04/19 09:20:39;;;;;;;;;20.75;16.00;;;;;;;;5102811;27;62183;-73
2023/04/19 09:23:06;;;;;;;;;25.50;17.25;;;;;;;;5103031;27;61741;-72
2023/04/19 09:25:31;;;;;;;;;19.25;17.50;;;;;;;;5103276;27;61864;-72
2023/04/19 09:28:11;;;;;;;;;20.50;17.25;;;;;;;;5118475;27;61895;-73
2023/04/19 09:30:37;;;;;;;;;22.25;20.75;;;;;;;;5117734;27;61847;-74
2023/04/19 09:33:03;;;;;;;;;23.00;17.25;;;;;;;;5101716;27;61934;-74
2023/04/19 09:35:41;;;;;;;;;17.00;14.00;;;;;;;;5103129;27;61963;-73
2023/04/19 09:38:07;;;;;;;;;17.25;14.75;;;;;;;;5105929;27;61766;-74
2023/04/19 09:40:32;;;;;;;;;18.75;14.50;;;;;;;;5091259;27;62753;-74
2023/04/19 09:42:57;;;;;;;;;21.00;16.75;;;;;;;;5082881;27;61920;-74
2023/04/19 09:45:22;;;;;;;;;19.50;17.25;;;;;;;;5102608;27;61929;-73
2023/04/19 09:48:06;;;;;;;;;21.25;14.75;;;;;;;;5093076;27;61773;-73
2023/04/19 09:50:31;;;;;;;;;21.00;17.00;;;;;;;;5092827;27;61749;-73
2023/04/19 09:52:57;;;;;;;;;18.25;17.00;;;;;;;;5114586;27;61733;-73
2023/04/19 09:55:23;;;;;;;;;19.75;18.00;;;;;;;;5102895;27;61904;-74
2023/04/19 09:57:48;;;;;;;;;22.50;16.25;;;;;;;;5107779;27;61746;-73
2023/04/19 10:00:14;;;;;;;;;22.00;18.50;;;;;;;;5114913;27;61907;-73
2023/04/19 10:02:40;;;;;;;;;20.75;16.25;;;;;;;;5101456;27;61921;-73
2023/04/19 10:05:07;;;;;;;;;16.75;15.00;;;;;;;;5103996;27;61855;-73
2023/04/19 10:07:32;;;;;;;;;16.00;13.50;;;;;;;;5110365;27;62004;-73
2023/04/19 10:09:58;;;;;;;;;21.75;17.75;;;;;;;;5121548;27;61888;-73
2023/04/19 10:12:25;;;;;;;;;21.25;17.25;;;;;;;;5114469;27;62087;-74
2023/04/19 10:14:51;;;;;;;;;20.75;17.00;;;;;;;;5120211;27;61734;-73
2023/04/19 10:17:16;;;;;;;;;23.25;17.50;;;;;;;;5106166;27;62022;-73
2023/04/19 10:19:42;;;;;;;;;13.00;10.00;;;;;;;;5122349;27;62790;-72
2023/04/19 10:22:08;;;;;;;;;15.75;13.75;;;;;;;;5119456;27;62000;-72
2023/04/19 10:24:33;;;;;;;;;17.75;15.75;;;;;;;;5106839;27;61834;-73
2023/04/19 10:27:02;;;;;;;;;15.00;14.00;;;;;;;;5100901;27;61862;-72
2023/04/19 10:29:45;;;;;;;;;18.75;16.25;;;;;;;;5112020;27;61985;-72
2023/04/19 10:32:12;;;;;;;;;18.75;14.25;;;;;;;;5100589;27;61911;-73
2023/04/19 10:34:41;;;;;;;;;16.25;14.75;;;;;;;;5110155;27;61844;-72
2023/04/19 10:37:09;;;;;;;;;16.00;12.50;;;;;;;;5119720;27;62179;-73
2023/04/19 10:39:38;;;;;;;;;14.25;9.75;;;;;;;;5105129;27;63485;-75
2023/04/19 10:42:03;;;;;;;;;14.25;12.50;;;;;;;;5106945;27;61863;-75
2023/04/19 10:44:29;;;;;;;;;20.25;14.50;;;;;;;;5100233;27;62472;-74
2023/04/19 10:46:54;;;;;;;;;19.25;15.25;;;;;;;;5099878;27;61842;-75
2023/04/19 10:49:22;;;;;;;;;22.25;15.75;;;;;;;;5081033;27;61914;-75
2023/04/19 10:51:51;;;;;;;;;21.00;16.75;;;;;;;;5088506;27;61812;-75
2023/04/19 10:54:29;;;;;;;;;15.25;13.75;;;;;;;;5105570;27;61877;-76
2023/04/19 10:56:56;;;;;;;;;22.50;17.25;;;;;;;;5118392;27;62727;-74
2023/04/19 10:59:22;;;;;;;;;18.00;16.25;;;;;;;;5107720;27;63500;-73
2023/04/19 11:01:51;;;;;;;;;23.50;14.75;;;;;;;;5098470;27;61688;-74
2023/04/19 11:04:29;;;;;;;;;18.00;16.75;;;;;;;;5100291;27;61953;-74
2023/04/19 11:06:55;;;;;;;;;23.00;14.50;;;;;;;;5110321;27;61839;-74
2023/04/19 11:09:27;;;;;;;;;12.75;11.50;;;;;;;;5099821;27;61988;-74
2023/04/19 11:11:52;;;;;;;;;15.25;13.75;;;;;;;;5094080;27;61933;-72
2023/04/19 11:14:22;;;;;;;;;18.00;14.25;;;;;;;;5092010;27;61770;-70
2023/04/19 11:16:48;;;;;;;;;10.25;10.25;;;;;;;;5098854;27;62207;-70
2023/04/19 11:19:17;;;;;;;;;12.50;11.00;;;;;;;;5087030;27;62093;-71
2023/04/19 11:21:44;;;;;;;;;16.00;13.25;;;;;;;;5093423;27;61849;-71
2023/04/19 11:24:10;;;;;;;;;12.75;11.50;;;;;;;;5106415;27;61974;-71
2023/04/19 11:26:35;;;;;;;;;14.75;12.00;;;;;;;;5100142;27;61811;-71
2023/04/19 11:29:00;;;;;;;;;8.75;4.50;;;;;;;;5097557;27;62393;-71
2023/04/19 11:31:26;;;;;;;;;10.75;9.50;;;;;;;;5096319;27;61932;-71
2023/04/19 11:33:52;;;;;;;;;14.50;11.75;;;;;;;;5094606;27;61841;-72
2023/04/19 11:36:17;;;;;;;;;16.50;16.25;;;;;;;;5103070;27;61918;-71
2023/04/19 11:38:46;;;;;;;;;14.25;11.00;;;;;;;;5105053;27;61903;-71
2023/04/19 11:41:11;;;;;;;;;13.50;10.50;;;;;;;;5105641;27;62490;-71
2023/04/19 11:43:36;;;;;;;;;10.00;10.00;;;;;;;;5104174;27;62522;-69
2023/04/19 11:46:05;;;;;;;;;11.00;9.50;;;;;;;;5104404;27;61974;-72
2023/04/19 11:48:31;;;;;;;;;10.00;10.00;;;;;;;;5104028;27;62652;-71
2023/04/19 11:50:57;;;;;;;;;13.50;12.50;;;;;;;;5113625;27;61750;-71
2023/04/19 11:53:23;;;;;;;;;10.00;9.75;;;;;;;;5125742;27;61827;-71
2023/04/19 11:55:52;;;;;;;;;10.75;9.50;;;;;;;;5110031;27;61790;-71
2023/04/19 11:58:24;;;;;;;;;10.00;9.25;;;;;;;;5102468;27;61926;-71
2023/04/19 12:00:50;;;;;;;;;8.00;8.00;;;;;;;;5086007;27;61905;-71
2023/04/19 12:03:15;;;;;;;;;11.75;10.75;;;;;;;;5101179;27;61985;-71
2023/04/19 12:05:51;;;;;;;;;12.75;9.00;;;;;;;;5102747;27;61933;-73
2023/04/19 12:08:16;;;;;;;;;6.67;5.00;;;;;;;;5108269;27;61938;-72
2023/04/19 12:10:54;;;;;;;;;6.00;5.00;;;;;;;;5105651;27;62015;-72
2023/04/19 12:13:19;;;;;;;;;12.25;8.50;;;;;;;;5103368;27;61952;-72
2023/04/19 12:15:45;;;;;;;;;7.00;7.00;;;;;;;;5105277;27;61893;-73
2023/04/19 12:18:11;;;;;;;;;11.00;8.67;;;;;;;;5103396;27;61811;-73
2023/04/19 12:20:37;;;;;;;;;11.67;9.00;;;;;;;;5107788;27;61768;-73
2023/04/19 12:23:03;;;;;;;;;8.67;8.00;;;;;;;;5101514;27;61753;-72
2023/04/19 12:25:32;;;;;;;;;8.00;7.00;;;;;;;;5103032;27;62203;-70
2023/04/19 12:27:58;;;;;;;;;13.00;10.33;;;;;;;;5103012;27;63772;-71
2023/04/19 12:30:24;;;;;;;;;10.33;7.00;;;;;;;;5103799;27;61916;-71
2023/04/19 12:32:51;;;;;;;;;9.67;9.00;;;;;;;;5103602;27;61773;-71
2023/04/19 12:35:16;;;;;;;;;10.33;7.67;;;;;;;;5103439;27;61729;-72
2023/04/19 12:37:42;;;;;;;;;11.00;9.00;;;;;;;;5101691;27;61986;-71
2023/04/19 12:40:08;;;;;;;;;10.67;9.00;;;;;;;;5102329;27;61914;-72
2023/04/19 12:42:33;;;;;;;;;10.33;10.33;;;;;;;;5100985;27;61874;-71
2023/04/19 12:44:58;;;;;;;;;10.33;8.00;;;;;;;;5108398;27;62040;-72
2023/04/19 12:47:23;;;;;;;;;8.00;6.00;;;;;;;;5108968;27;64727;-71
2023/04/19 12:49:49;;;;;;;;;9.33;6.33;;;;;;;;5105372;27;61805;-71
2023/04/19 12:52:14;;;;;;;;;10.33;9.00;;;;;;;;5106205;27;62216;-71
2023/04/19 12:54:39;;;;;;;;;9.33;8.00;;;;;;;;5103032;27;61963;-72
2023/04/19 12:57:05;;;;;;;;;7.67;7.00;;;;;;;;5101933;27;61935;-71
2023/04/19 12:59:31;;;;;;;;;6.33;5.33;;;;;;;;5099903;27;61770;-71
2023/04/19 13:01:56;;;;;;;;;5.33;5.33;;;;;;;;5106046;27;62072;-71
2023/04/19 13:04:21;;;;;;;;;5.33;5.33;;;;;;;;5103575;27;61774;-71
2023/04/19 13:06:47;;;;;;;;;5.00;4.67;;;;;;;;5103359;27;62312;-71
2023/04/19 13:09:12;;;;;;;;;5.00;4.00;;;;;;;;5085079;27;62179;-71
2023/04/19 13:11:37;;;;;;;;;3.67;3.67;;;;;;;;5081100;28;62166;-71
2023/04/19 13:14:02;;;;;;;;;5.00;4.00;;;;;;;;5082454;28;62288;-71
2023/04/19 13:16:28;;;;;;;;;5.00;4.33;;;;;;;;5100798;27;61692;-72
2023/04/19 13:18:54;;;;;;;;;5.33;4.00;;;;;;;;5104077;27;61985;-71
2023/04/19 13:21:19;;;;;;;;;3.67;3.67;;;;;;;;5103477;27;61722;-71
2023/04/19 13:23:44;;;;;;;;;3.33;3.33;;;;;;;;5103938;27;61747;-71
2023/04/19 13:26:10;;;;;;;;;6.00;4.67;;;;;;;;5102196;27;62151;-71
2023/04/19 13:28:35;;;;;;;;;6.00;4.00;;;;;;;;5103479;27;61973;-71
2023/04/19 13:31:01;;;;;;;;;5.67;5.00;;;;;;;;5103847;27;61880;-72
2023/04/19 13:33:26;;;;;;;;;4.00;4.00;;;;;;;;5103880;27;61758;-72
2023/04/19 13:35:52;;;;;;;;;3.67;3.67;;;;;;;;5114392;27;61820;-71
2023/04/19 13:38:17;;;;;;;;;3.67;3.67;;;;;;;;5122976;27;61668;-72
2023/04/19 13:40:43;;;;;;;;;4.33;4.00;;;;;;;;5093203;27;61771;-72
2023/04/19 13:43:08;;;;;;;;;5.00;3.67;;;;;;;;5082960;28;62068;-71
2023/04/19 13:45:34;;;;;;;;;4.00;3.00;;;;;;;;5103911;27;61842;-71
2023/04/19 13:47:59;;;;;;;;;3.67;3.67;;;;;;;;5112472;27;61966;-72
2023/04/19 13:50:24;;;;;;;;;3.00;3.00;;;;;;;;5103401;27;62050;-72
2023/04/19 13:52:50;;;;;;;;;3.67;3.67;;;;;;;;5101493;27;61990;-72
2023/04/19 13:55:15;;;;;;;;;6.67;4.67;;;;;;;;5102631;27;62598;-72
2023/04/19 13:57:41;;;;;;;;;3.67;3.67;;;;;;;;5102887;27;61794;-72
2023/04/19 14:00:07;;;;;;;;;3.67;2.33;;;;;;;;5120380;27;61942;-72
2023/04/19 14:02:32;;;;;;;;;3.33;3.00;;;;;;;;5106213;27;61878;-72
2023/04/19 14:04:58;;;;;;;;;5.00;4.00;;;;;;;;5123043;27;62271;-72
2023/04/19 14:07:23;;;;;;;;;3.00;3.00;;;;;;;;5123299;27;62114;-71
2023/04/19 14:09:48;;;;;;;;;2.67;2.67;;;;;;;;5119726;27;61960;-72
2023/04/19 14:12:14;;;;;;;;;3.00;3.00;;;;;;;;5103015;27;61750;-72
2023/04/19 14:14:39;;;;;;;;;4.33;3.33;;;;;;;;5105124;27;61855;-72